EDT,Max TemperatureF,Mean TemperatureF,Min TemperatureF,Max Dew PointF,MeanDew PointF,Min DewpointF,Max Humidity, Mean Humidity, Min Humidity, Max Sea Level PressureIn, Mean Sea Level PressureIn, Min Sea Level PressureIn, Max VisibilityMiles, Mean VisibilityMiles, Min VisibilityMiles, Max Wind SpeedMPH, Mean Wind SpeedMPH, Max Gust SpeedMPH,PrecipitationIn, CloudCover, Events, WindDirDegrees
2014-4-1,46,38,30,27,21,10,70,52,25,30.09,30.02,29.96,10,10,9,18,10,28,0.00,2,,13
2014-4-2,37,30,24,27,20,10,93,62,41,30.14,30.10,30.07,10,10,10,13,6,16,0.00,0,,73
2014-4-3,46,35,24,32,25,19,100,64,34,30.16,30.07,30.04,10,10,10,12,4,18,0.00,2,,342
2014-4-4,42,35,28,36,24,18,93,61,39,30.20,30.13,30.02,10,10,7,14,6,18,0.06,1,,83
2014-4-5,46,40,35,45,37,23,100,88,56,30.02,29.73,29.59,10,7,1,20,11,31,0.57,7,,332
2014-4-6,50,40,30,25,21,18,69,48,28,30.14,29.97,29.79,10,10,10,22,14,32,0.00,2,,276
2014-4-7,53,40,26,36,28,19,87,64,33,30.24,30.18,30.07,10,10,10,13,3,18,0.00,0,,176
2014-4-8,48,44,39,48,42,34,100,96,76,30.06,29.53,29.30,10,4,0,21,9,29,1.02,8,,159
2014-4-9,51,40,30,43,27,12,100,59,27,29.89,29.58,29.36,10,10,10,24,11,29,0.00,2,,283
2014-4-10,44,35,26,34,25,14,69,60,39,30.12,30.03,29.90,10,10,10,21,7,30,0.00,0,,214
2014-4-11,60,51,42,45,39,32,93,69,45,29.99,29.93,29.90,10,10,8,17,11,28,0.05,3,,211
2014-4-12,62,50,39,41,33,25,93,58,24,30.24,30.07,29.97,10,10,9,20,5,26,0.00,2,,278
2014-4-13,44,40,37,43,35,28,100,80,53,30.36,30.24,30.03,10,9,5,16,6,22,0.19,6,,70
2014-4-14,57,49,41,52,46,39,100,89,77,30.02,29.94,29.85,10,6,0,20,9,30,0.00,4,,205
2014-4-15,51,48,46,50,47,45,100,94,87,29.90,29.77,29.59,8,6,1,21,14,32,0.31,8,,193
2014-4-16,50,39,28,48,21,10,94,62,35,30.64,30.15,29.61,10,9,0,17,11,30,0.28,3,,306
2014-4-17,37,32,26,25,17,10,93,57,36,30.86,30.77,30.65,10,10,7,16,7,22,0.00,0,,58
2014-4-18,39,31,23,30,27,19,93,77,65,30.70,30.50,30.25,10,10,10,14,4,,0.00,3,,133
2014-4-19,55,42,30,36,29,19,93,63,38,30.38,30.20,30.13,10,10,7,17,6,31,0.00,3,,288
2014-4-20,48,39,30,34,25,18,87,56,34,30.52,30.44,30.34,10,10,5,15,7,20,0.00,0,,250
2014-4-21,50,42,35,41,36,30,93,75,50,30.34,30.07,29.83,10,10,10,16,8,22,0.00,1,,210
2014-4-22,50,42,33,45,41,32,100,87,76,29.82,29.65,29.48,10,10,5,9,3,,0.00,3,,148
2014-4-23,55,48,42,48,43,34,100,84,63,29.47,29.42,29.35,10,8,0,16,4,25,0.28,7,,352
2014-4-24,50,46,41,34,32,28,76,61,47,29.84,29.58,29.44,10,10,10,18,11,36,0.01,8,,333
2014-4-25,55,45,35,36,32,28,100,64,36,29.95,29.89,29.85,10,10,10,12,6,18,0.00,0,,288
2014-4-26,44,40,35,39,38,34,100,91,76,29.92,29.88,29.85,10,9,5,9,5,,0.39,5,,62
2014-4-27,50,44,39,41,37,34,100,78,58,29.96,29.91,29.87,10,10,5,10,5,18,0.04,7,,11
2014-4-28,50,46,42,39,36,32,81,70,62,30.31,30.05,29.96,10,10,10,16,9,25,0.00,8,,15
2014-4-29,50,44,37,36,33,30,87,72,54,30.58,30.47,30.31,10,10,10,18,12,24,0.00,2,,53
2014-4-30,42,40,37,37,35,32,93,85,75,30.60,30.50,30.31,10,10,10,15,10,23,0.02,8,,100